Time;durP1;ratioP1;P1;durP2;ratioP2;P2;SDS_P1;SDS_P2;PMS_P1;PMS_P2;Temp;Humidity;BMP_temperature;BMP_pressure;BME280_temperature;BME280_humidity;BME280_pressure;Samples;Min_cycle;Max_cycle;Signal;HPM_P1;HPM_P2
2022/04/17 00:01:03;;;;;;;13.48;12.02;;;14.50;54.00;;;;;;4931582;29;20292;-85
2022/04/17 00:03:30;;;;;;;15.02;12.70;;;14.50;54.00;;;;;;4930771;29;20031;-85
2022/04/17 00:05:56;;;;;;;13.48;11.80;;;14.50;54.10;;;;;;4935864;29;20130;-87
2022/04/17 00:08:22;;;;;;;13.98;10.98;;;14.40;54.00;;;;;;4931189;29;20118;-84
2022/04/17 00:10:48;;;;;;;14.35;12.57;;;14.40;54.10;;;;;;4928992;29;20043;-84
2022/04/17 00:13:14;;;;;;;12.93;11.45;;;14.40;54.10;;;;;;4928441;29;20043;-86
2022/04/17 00:15:40;;;;;;;13.35;11.05;;;14.40;54.20;;;;;;4927969;29;20024;-85
2022/04/17 00:18:06;;;;;;;12.27;10.48;;;14.40;54.20;;;;;;4920054;29;20437;-84
2022/04/17 00:20:32;;;;;;;12.85;11.43;;;14.30;54.00;;;;;;4929207;29;20322;-86
2022/04/17 00:22:58;;;;;;;12.73;11.23;;;14.30;54.10;;;;;;4933619;29;20298;-84
2022/04/17 00:25:24;;;;;;;12.75;11.07;;;14.30;54.10;;;;;;4930560;28;20028;-87
2022/04/17 00:27:50;;;;;;;13.15;10.48;;;14.30;54.10;;;;;;4929503;29;20063;-86
2022/04/17 00:30:16;;;;;;;11.07;9.85;;;14.20;53.90;;;;;;4927095;29;20122;-85
2022/04/17 00:32:43;;;;;;;12.75;10.18;;;14.20;54.00;;;;;;4924535;29;20397;-87
2022/04/17 00:35:09;;;;;;;11.65;9.57;;;14.20;54.00;;;;;;4926247;29;20035;-86
2022/04/17 00:37:36;;;;;;;11.23;9.40;;;14.10;53.80;;;;;;4930263;29;20044;-84
2022/04/17 00:40:04;;;;;;;11.40;10.07;;;14.10;53.90;;;;;;4927312;29;20032;-84
2022/04/17 00:42:31;;;;;;;11.68;10.30;;;14.10;53.90;;;;;;4921336;29;20550;-84
2022/04/17 00:44:57;;;;;;;12.00;10.70;;;14.10;54.00;;;;;;4927606;29;20035;-83
2022/04/17 00:47:22;;;;;;;13.07;10.40;;;14.10;54.00;;;;;;4919027;29;20445;-83
2022/04/17 00:49:49;;;;;;;11.52;9.38;;;14.00;53.80;;;;;;4919688;29;20023;-84
2022/04/17 00:52:16;;;;;;;10.70;9.60;;;14.00;53.80;;;;;;4928194;29;20031;-83
2022/04/17 00:54:44;;;;;;;14.10;10.13;;;14.00;53.90;;;;;;4927435;29;20047;-84
2022/04/17 00:57:12;;;;;;;12.75;10.43;;;13.90;53.80;;;;;;4928564;29;20032;-84
2022/04/17 00:59:42;;;;;;;15.27;10.18;;;13.90;53.80;;;;;;4927599;29;20114;-83
2022/04/17 01:02:09;;;;;;;12.18;10.88;;;13.90;53.90;;;;;;4911929;29;20044;-83
2022/04/17 01:04:39;;;;;;;12.05;9.40;;;13.90;53.90;;;;;;4927505;29;20032;-84
2022/04/17 01:07:06;;;;;;;12.55;11.07;;;13.80;53.90;;;;;;4921191;29;20031;-84
2022/04/17 01:09:32;;;;;;;13.30;10.15;;;13.80;53.80;;;;;;4925672;29;20034;-85
2022/04/17 01:11:58;;;;;;;13.13;9.68;;;13.80;53.90;;;;;;4927869;29;20146;-86
2022/04/17 01:14:26;;;;;;;12.48;10.50;;;13.70;53.70;;;;;;4928851;29;20118;-85
2022/04/17 01:16:53;;;;;;;10.60;9.50;;;13.70;53.80;;;;;;4927505;29;20055;-85
2022/04/17 01:19:19;;;;;;;12.60;9.38;;;13.60;53.60;;;;;;4921034;29;20032;-85
2022/04/17 01:21:49;;;;;;;11.52;10.30;;;13.70;53.90;;;;;;4928232;29;20044;-85
2022/04/17 01:27:03;;;;;;;11.05;9.88;;;13.60;53.80;;;;;;4927682;29;20468;-86
2022/04/17 01:29:38;;;;;;;12.60;10.63;;;13.60;53.80;;;;;;4931005;29;20067;-86
2022/04/17 01:32:07;;;;;;;10.77;9.52;;;13.60;53.90;;;;;;4922729;28;20074;-85
2022/04/17 01:34:35;;;;;;;10.23;8.65;;;13.50;53.70;;;;;;4911405;29;20031;-86
2022/04/17 01:37:02;;;;;;;12.23;10.27;;;13.50;53.70;;;;;;4911743;29;20036;-85
2022/04/17 01:39:29;;;;;;;12.43;9.90;;;13.50;53.80;;;;;;4919845;29;20024;-86
2022/04/17 01:41:56;;;;;;;12.75;10.27;;;13.50;53.90;;;;;;4924094;29;20040;-85
2022/04/17 01:44:24;;;;;;;13.52;10.15;;;13.40;53.70;;;;;;4921544;29;20080;-86
2022/04/17 01:46:51;;;;;;;13.25;10.57;;;13.40;53.80;;;;;;4909068;29;20095;-85
2022/04/17 01:49:18;;;;;;;11.00;9.68;;;13.40;53.80;;;;;;4929331;29;20110;-87
2022/04/17 01:51:45;;;;;;;11.38;9.07;;;13.40;53.90;;;;;;4928664;29;20031;-87
2022/04/17 01:54:18;;;;;;;11.23;10.05;;;13.30;53.70;;;;;;4928642;29;20072;-86
2022/04/17 01:56:47;;;;;;;;;;;13.30;53.90;;;;;;4931182;29;20031;-86
2022/04/17 01:59:14;;;;;;;14.15;9.55;;;13.30;53.90;;;;;;4912873;29;19920;-86
2022/04/17 02:01:40;;;;;;;12.60;10.57;;;13.20;53.60;;;;;;4929406;29;20054;-86
2022/04/17 02:04:08;;;;;;;11.48;9.43;;;13.20;53.70;;;;;;4929663;29;20071;-85
2022/04/17 02:06:36;;;;;;;13.20;9.75;;;13.10;53.60;;;;;;4931474;29;20357;-85
2022/04/17 02:09:03;;;;;;;10.88;9.18;;;13.10;54.30;;;;;;4915878;29;20031;-85
2022/04/17 02:11:29;;;;;;;12.27;10.25;;;13.10;53.80;;;;;;4933425;29;20452;-85
2022/04/17 02:13:57;;;;;;;13.35;9.77;;;13.00;53.60;;;;;;4932087;29;20036;-85
2022/04/17 02:16:23;;;;;;;12.85;10.75;;;13.00;53.80;;;;;;4924733;29;20138;-85
2022/04/17 02:18:49;;;;;;;11.40;9.13;;;12.90;53.60;;;;;;4933200;29;20095;-85
2022/04/17 02:21:16;;;;;;;12.93;10.40;;;12.90;53.70;;;;;;4934313;29;20056;-85
2022/04/17 02:23:44;;;;;;;12.77;10.40;;;12.90;53.80;;;;;;4940445;29;20028;-86
2022/04/17 02:26:13;;;;;;;11.85;9.57;;;12.90;53.80;;;;;;4932303;29;20521;-85
2022/04/17 02:28:40;;;;;;;12.75;9.93;;;12.90;53.90;;;;;;4932630;29;20392;-84
2022/04/17 02:31:08;;;;;;;12.52;10.00;;;12.80;53.80;;;;;;4931151;29;20653;-84
2022/04/17 02:33:35;;;;;;;11.63;9.73;;;12.80;53.80;;;;;;4933286;29;20043;-84
2022/04/17 02:36:01;;;;;;;11.35;9.73;;;12.80;53.90;;;;;;4933488;29;20031;-86
2022/04/17 02:38:27;;;;;;;12.77;9.75;;;12.80;54.00;;;;;;4932195;29;20043;-84
2022/04/17 02:40:54;;;;;;;13.52;11.20;;;12.80;54.00;;;;;;4930506;29;20062;-84
2022/04/17 02:43:20;;;;;;;12.98;10.70;;;12.80;54.10;;;;;;4932804;29;20028;-84
2022/04/17 02:45:46;;;;;;;13.80;11.95;;;12.70;53.90;;;;;;4944351;29;20031;-84
2022/04/17 02:48:12;;;;;;;15.15;11.48;;;12.70;54.00;;;;;;4944573;29;20068;-84
2022/04/17 02:50:39;;;;;;;13.80;11.93;;;12.60;53.80;;;;;;4943505;29;20615;-83
2022/04/17 02:53:05;;;;;;;14.23;11.77;;;12.60;53.90;;;;;;4933256;29;20369;-84
2022/04/17 02:55:31;;;;;;;16.08;12.43;;;12.60;53.90;;;;;;4933290;29;20032;-84
2022/04/17 02:57:57;;;;;;;15.63;12.45;;;12.60;54.00;;;;;;4929901;29;20035;-85
2022/04/17 03:00:24;;;;;;;15.05;12.32;;;12.50;53.90;;;;;;4927148;29;20028;-85
2022/04/17 03:05:37;;;;;;;15.30;12.35;;;12.50;54.00;;;;;;4926894;29;20039;-84
2022/04/17 03:08:16;;;;;;;17.70;13.18;;;12.40;53.90;;;;;;4928562;29;20428;-82
2022/04/17 03:10:43;;;;;;;15.65;14.05;;;12.40;53.90;;;;;;4928619;29;20043;-83
2022/04/17 03:13:10;;;;;;;15.48;12.63;;;12.40;54.00;;;;;;4928411;29;20486;-83
2022/04/17 03:15:38;;;;;;;16.67;13.75;;;12.40;54.10;;;;;;4929492;29;20504;-83
2022/04/17 03:18:08;;;;;;;17.88;14.68;;;12.30;53.90;;;;;;4930139;29;20431;-83
2022/04/17 03:20:35;;;;;;;16.42;13.45;;;12.30;54.00;;;;;;4933434;29;20789;-83
2022/04/17 03:23:01;;;;;;;18.02;14.77;;;12.30;54.10;;;;;;4939452;29;20031;-82
2022/04/17 03:25:27;;;;;;;18.60;14.00;;;12.30;54.10;;;;;;4933305;28;20396;-83
2022/04/17 03:27:53;;;;;;;17.55;14.40;;;12.30;54.20;;;;;;4917964;29;20034;-82
2022/04/17 03:30:19;;;;;;;17.58;14.25;;;12.20;54.00;;;;;;4934610;28;20072;-82
2022/04/17 03:32:47;;;;;;;16.13;14.02;;;12.20;54.10;;;;;;4937059;29;20031;-81
2022/04/17 03:35:15;;;;;;;16.90;14.88;;;12.20;54.10;;;;;;4955081;29;20124;-82
2022/04/17 03:37:42;;;;;;;20.80;15.57;;;12.20;54.20;;;;;;4956664;28;20152;-82
2022/04/17 03:40:10;;;;;;;20.45;15.75;;;12.20;54.20;;;;;;4945660;29;20042;-80
2022/04/17 03:42:37;;;;;;;18.08;15.18;;;12.20;54.30;;;;;;4956067;28;20031;-80
2022/04/17 03:45:08;;;;;;;19.63;15.73;;;12.20;54.30;;;;;;4956468;28;20039;-80
2022/04/17 03:47:35;;;;;;;18.40;14.68;;;12.10;54.20;;;;;;4954688;28;20036;-80
2022/04/17 03:50:03;;;;;;;17.30;14.27;;;12.10;54.80;;;;;;4952132;28;20063;-81
2022/04/17 03:52:50;;;;;;;20.75;15.05;;;12.10;54.30;;;;;;4949682;29;20031;-81
2022/04/17 03:55:16;;;;;;;19.30;14.77;;;12.00;54.30;;;;;;4934672;29;20259;-83
2022/04/17 03:57:42;;;;;;;19.23;16.00;;;12.00;54.20;;;;;;4929189;29;20039;-83
2022/04/17 04:00:12;;;;;;;23.73;16.52;;;12.00;54.30;;;;;;4933333;29;20032;-86
2022/04/17 04:02:40;;;;;;;18.80;15.75;;;12.00;54.30;;;;;;4930663;29;21267;-85
2022/04/17 04:05:08;;;;;;;16.95;15.07;;;11.90;54.20;;;;;;4931603;29;20146;-86
2022/04/17 04:07:34;;;;;;;19.58;15.90;;;11.90;54.30;;;;;;4932670;29;20031;-84
2022/04/17 04:10:00;;;;;;;21.98;16.48;;;11.90;54.30;;;;;;4928309;29;20043;-84
2022/04/17 04:12:26;;;;;;;20.30;16.20;;;11.80;54.30;;;;;;4933723;29;20027;-84
2022/04/17 04:14:52;;;;;;;20.75;17.45;;;11.80;54.30;;;;;;4930602;29;20039;-84
2022/04/17 04:17:17;;;;;;;20.75;17.10;;;11.80;54.30;;;;;;4933328;29;20033;-82
2022/04/17 04:19:43;;;;;;;22.17;16.90;;;11.80;54.40;;;;;;4930480;29;20070;-82
2022/04/17 04:22:09;;;;;;;17.85;15.88;;;11.80;54.40;;;;;;4931303;29;20047;-82
2022/04/17 04:24:35;;;;;;;20.30;16.38;;;11.70;54.30;;;;;;4911346;29;20049;-81
2022/04/17 04:29:47;;;;;;;24.88;17.27;;;11.70;54.40;;;;;;4931104;29;20042;-81
2022/04/17 04:32:13;;;;;;;18.08;15.18;;;11.80;54.50;;;;;;4928420;29;20031;-81
2022/04/17 04:34:39;;;;;;;20.98;16.67;;;11.70;54.40;;;;;;4930621;29;20024;-81
2022/04/17 04:37:06;;;;;;;21.98;17.50;;;11.70;54.40;;;;;;4931169;29;20116;-82
2022/04/17 04:39:32;;;;;;;21.20;17.17;;;11.70;54.40;;;;;;4930976;29;20137;-82
2022/04/17 04:41:58;;;;;;;19.17;15.57;;;11.70;54.50;;;;;;4930197;29;20537;-81
2022/04/17 04:44:23;;;;;;;19.80;17.25;;;11.70;54.60;;;;;;4931174;29;20159;-82
2022/04/17 04:46:49;;;;;;;20.10;16.85;;;11.70;54.60;;;;;;4929716;29;20063;-82
2022/04/17 04:49:31;;;;;;;19.80;16.67;;;11.60;54.50;;;;;;4927133;29;20051;-81
2022/04/17 04:52:01;;;;;;;22.30;16.83;;;11.60;54.50;;;;;;4934480;29;20039;-82
2022/04/17 04:54:33;;;;;;;21.17;17.00;;;11.60;54.50;;;;;;4941957;29;20113;-83
2022/04/17 04:57:00;;;;;;;20.57;16.17;;;11.60;54.60;;;;;;4933966;28;20197;-87
2022/04/17 04:59:26;;;;;;;20.52;16.67;;;11.60;54.60;;;;;;4915385;29;20274;-84
2022/04/17 05:01:52;;;;;;;20.30;16.27;;;11.60;54.60;;;;;;4938479;29;20039;-84
2022/04/17 05:04:20;;;;;;;21.15;17.08;;;11.60;54.70;;;;;;4919324;29;20094;-84
2022/04/17 05:06:46;;;;;;;17.95;15.82;;;11.60;54.70;;;;;;4928598;29;20036;-83
2022/04/17 05:09:12;;;;;;;19.40;16.33;;;11.50;54.60;;;;;;4930940;29;20766;-83
2022/04/17 05:11:39;;;;;;;21.40;17.33;;;11.50;54.60;;;;;;4929912;29;20344;-86
2022/04/17 05:14:06;;;;;;;21.35;16.70;;;11.60;54.90;;;;;;4927780;29;20396;-84
2022/04/17 05:16:33;;;;;;;20.30;16.40;;;11.60;54.90;;;;;;4935046;29;20024;-87
2022/04/17 05:21:46;;;;;;;20.42;16.05;;;11.60;55.00;;;;;;4937580;28;20051;-86
2022/04/17 05:24:14;;;;;;;20.77;17.30;;;11.60;55.00;;;;;;4937132;29;20039;-86
2022/04/17 05:26:40;;;;;;;18.42;15.30;;;11.60;55.10;;;;;;4935717;29;20081;-84
2022/04/17 05:29:06;;;;;;;18.90;16.02;;;11.60;55.10;;;;;;4935859;29;21035;-85
2022/04/17 05:31:32;;;;;;;19.02;16.02;;;11.60;55.10;;;;;;4931668;29;20040;-85
2022/04/17 05:33:58;;;;;;;19.52;15.85;;;11.70;55.30;;;;;;4936916;28;20024;-85
2022/04/17 05:36:24;;;;;;;19.02;16.02;;;11.70;55.30;;;;;;4919643;29;20084;-85
2022/04/17 05:38:53;;;;;;;20.35;15.38;;;11.70;55.30;;;;;;4938919;28;20046;-83
2022/04/17 05:41:29;;;;;;;19.10;16.77;;;11.70;55.30;;;;;;4909895;29;20047;-87
2022/04/17 05:43:59;;;;;;;19.35;15.57;;;11.80;56.10;;;;;;4930105;29;20031;-86
2022/04/17 05:46:35;;;;;;;20.63;15.65;;;11.80;55.50;;;;;;4931592;29;20142;-85
2022/04/17 05:49:02;;;;;;;18.23;14.85;;;11.80;55.40;;;;;;4931457;29;20487;-87
2022/04/17 05:51:28;;;;;;;17.77;14.82;;;11.90;55.50;;;;;;4936551;29;20133;-87
2022/04/17 05:53:54;;;;;;;21.00;16.33;;;11.90;55.50;;;;;;4935811;29;20047;-80
2022/04/17 05:56:20;;;;;;;21.05;17.35;;;11.90;55.40;;;;;;4933508;29;20040;-79
2022/04/17 05:58:46;;;;;;;20.40;15.50;;;12.00;55.60;;;;;;4933496;29;20126;-80
2022/04/17 06:01:12;;;;;;;18.27;15.73;;;12.00;55.50;;;;;;4933363;29;20067;-82
2022/04/17 06:03:38;;;;;;;23.45;17.42;;;12.00;55.40;;;;;;4938873;29;20027;-80
2022/04/17 06:06:03;;;;;;;23.80;18.50;;;12.10;55.60;;;;;;4939711;29;20035;-79
2022/04/17 06:08:29;;;;;;;26.08;19.15;;;12.10;55.50;;;;;;4940595;29;20311;-81
2022/04/17 06:10:57;;;;;;;23.10;18.50;;;12.20;55.50;;;;;;4936801;29;20064;-81
2022/04/17 06:13:23;;;;;;;24.27;19.73;;;12.20;55.60;;;;;;4938757;29;20035;-82
2022/04/17 06:15:49;;;;;;;25.33;18.80;;;12.30;55.90;;;;;;4934415;29;20675;-80
2022/04/17 06:18:15;;;;;;;21.10;17.13;;;12.30;56.00;;;;;;4933531;29;20060;-81
2022/04/17 06:20:41;;;;;;;19.92;17.15;;;12.40;56.10;;;;;;4934298;29;20114;-80
2022/04/17 06:23:07;;;;;;;21.02;18.38;;;12.40;56.00;;;;;;4946619;29;20028;-80
2022/04/17 06:25:32;;;;;;;21.88;18.40;;;12.50;56.10;;;;;;4946887;29;20285;-83
2022/04/17 06:27:59;;;;;;;23.10;17.40;;;12.60;56.20;;;;;;4954047;28;20214;-81
2022/04/17 06:30:25;;;;;;;23.67;18.73;;;12.70;56.20;;;;;;4954988;28;20065;-81
2022/04/17 06:32:51;;;;;;;22.33;17.75;;;12.70;56.10;;;;;;4956937;28;20048;-80
2022/04/17 06:35:17;;;;;;;24.73;19.35;;;12.90;56.30;;;;;;4954817;28;20019;-81
2022/04/17 06:37:56;;;;;;;21.10;17.13;;;12.90;56.10;;;;;;4950687;28;20039;-79
2022/04/17 06:40:24;;;;;;;21.70;16.40;;;13.10;56.30;;;;;;4935389;29;20031;-79
2022/04/17 06:42:53;;;;;;;22.17;17.50;;;13.20;56.20;;;;;;4935183;29;20268;-79
2022/04/17 06:45:19;;;;;;;20.02;17.60;;;13.40;56.10;;;;;;4937037;29;20404;-79
2022/04/17 06:47:45;;;;;;;19.58;16.00;;;13.60;56.00;;;;;;4935266;29;20610;-75
2022/04/17 06:50:12;;;;;;;21.52;16.90;;;13.90;56.00;;;;;;4938692;29;20050;-78
2022/04/17 06:52:38;;;;;;;22.20;18.42;;;14.20;55.90;;;;;;4934763;28;20118;-78
2022/04/17 06:55:05;;;;;;;21.52;18.85;;;14.40;55.60;;;;;;4934651;29;20031;-78
2022/04/17 06:57:33;;;;;;;21.05;17.25;;;14.60;55.70;;;;;;4927102;29;20042;-77
2022/04/17 07:00:05;;;;;;;21.73;18.70;;;14.70;55.40;;;;;;4933752;29;20038;-76
2022/04/17 07:02:31;;;;;;;21.60;17.50;;;14.90;55.30;;;;;;4933843;29;20320;-76
2022/04/17 07:04:56;;;;;;;20.20;17.75;;;15.10;55.20;;;;;;4936888;29;20055;-77
2022/04/17 07:07:22;;;;;;;20.92;17.33;;;15.30;55.10;;;;;;4937355;29;20115;-77
2022/04/17 07:09:49;;;;;;;20.70;16.20;;;15.50;55.10;;;;;;4927189;29;20281;-78
2022/04/17 07:12:16;;;;;;;20.05;16.10;;;15.70;55.10;;;;;;4925719;29;20366;-79
2022/04/17 07:14:42;;;;;;;19.50;17.25;;;15.90;54.90;;;;;;4931316;29;20043;-78
2022/04/17 07:17:08;;;;;;;20.00;15.40;;;16.10;54.90;;;;;;4926660;29;20436;-78
2022/04/17 07:19:34;;;;;;;19.38;17.30;;;16.20;54.80;;;;;;4933583;29;20066;-78
2022/04/17 07:21:59;;;;;;;19.83;16.83;;;16.40;54.80;;;;;;4931831;29;20050;-78
2022/04/17 07:24:26;;;;;;;19.38;16.85;;;16.50;54.70;;;;;;4940432;29;20396;-78
2022/04/17 07:26:56;;;;;;;17.70;15.80;;;16.70;54.70;;;;;;4927209;29;20031;-78
2022/04/17 07:29:23;;;;;;;17.90;15.85;;;16.80;54.70;;;;;;4931833;29;20488;-78
2022/04/17 07:31:50;;;;;;;18.52;16.50;;;16.90;54.70;;;;;;4933372;29;20059;-78
2022/04/17 07:34:18;;;;;;;19.98;17.67;;;17.00;54.60;;;;;;4930729;29;20032;-78
2022/04/17 07:36:44;;;;;;;18.40;16.38;;;17.10;54.60;;;;;;4929546;29;20415;-78
2022/04/17 07:39:10;;;;;;;20.02;17.20;;;17.10;54.40;;;;;;4929381;29;20107;-78
2022/04/17 07:41:36;;;;;;;18.23;16.30;;;17.20;54.40;;;;;;4930045;29;20066;-77
2022/04/17 07:44:03;;;;;;;19.70;16.00;;;17.20;54.30;;;;;;4913839;29;20115;-77
2022/04/17 07:46:30;;;;;;;18.85;16.08;;;17.30;54.40;;;;;;4930302;29;20047;-78
2022/04/17 07:48:56;;;;;;;18.05;15.98;;;17.40;55.00;;;;;;4939481;29;20034;-77
2022/04/17 07:51:22;;;;;;;17.35;14.88;;;17.40;54.20;;;;;;4930829;28;20036;-77
2022/04/17 07:53:48;;;;;;;19.42;16.92;;;17.50;54.20;;;;;;4931355;29;20130;-77
2022/04/17 07:56:14;;;;;;;17.92;16.02;;;17.70;54.10;;;;;;4927036;29;20585;-77
2022/04/17 07:58:40;;;;;;;18.13;16.05;;;17.90;54.00;;;;;;4929938;29;20501;-76
2022/04/17 08:01:14;;;;;;;18.20;15.43;;;18.00;53.60;;;;;;4927789;29;20040;-77
2022/04/17 08:06:06;;;;;;;17.35;15.48;;;18.40;53.20;;;;;;4929767;29;20427;-77
2022/04/17 08:08:37;;;;;;;18.42;15.63;;;18.60;53.20;;;;;;4929821;29;20028;-76
2022/04/17 08:11:08;;;;;;;18.48;16.15;;;18.60;52.80;;;;;;4929556;29;20063;-77
2022/04/17 08:13:36;;;;;;;17.58;15.77;;;18.70;52.80;;;;;;4929972;29;20554;-77
2022/04/17 08:16:04;;;;;;;20.25;16.55;;;18.70;52.90;;;;;;4929455;29;20131;-77
2022/04/17 08:18:31;;;;;;;18.42;15.90;;;18.60;52.90;;;;;;4912276;29;20035;-78
2022/04/17 08:20:57;;;;;;;20.50;16.73;;;18.60;53.00;;;;;;4930093;29;20044;-77
2022/04/17 08:23:23;;;;;;;21.30;16.35;;;18.50;53.00;;;;;;4932790;29;20151;-77
2022/04/17 08:25:50;;;;;;;17.02;15.23;;;18.50;53.10;;;;;;4929534;29;20055;-77
2022/04/17 08:28:16;;;;;;;17.50;15.30;;;18.40;53.00;;;;;;4934515;29;20037;-77
2022/04/17 08:30:42;;;;;;;18.65;15.82;;;18.40;53.10;;;;;;4929323;29;20050;-79
2022/04/17 08:33:08;;;;;;;18.73;15.48;;;18.40;53.20;;;;;;4929182;29;20443;-78
2022/04/17 08:35:35;;;;;;;17.55;15.55;;;18.40;53.20;;;;;;4927331;29;20038;-78
2022/04/17 08:38:01;;;;;;;22.23;19.33;;;18.40;53.30;;;;;;4921468;29;20028;-77
2022/04/17 08:40:27;;;;;;;23.77;20.40;;;18.40;53.20;;;;;;4920108;29;20031;-77
2022/04/17 08:42:54;;;;;;;26.10;21.67;;;18.30;52.80;;;;;;4925796;29;20103;-77
2022/04/17 08:45:21;;;;;;;26.02;21.15;;;18.20;52.50;;;;;;4927712;29;20028;-77
2022/04/17 08:47:47;;;;;;;24.45;20.30;;;18.20;52.60;;;;;;4924227;29;20495;-77
2022/04/17 08:50:18;;;;;;;27.88;20.83;;;18.10;52.60;;;;;;4931136;29;20072;-77
2022/04/17 08:52:50;;;;;;;24.50;20.77;;;18.10;52.80;;;;;;4926027;29;20046;-77
2022/04/17 08:55:16;;;;;;;24.30;19.90;;;18.10;52.80;;;;;;4917090;29;20036;-77
2022/04/17 08:57:43;;;;;;;21.83;18.88;;;18.10;52.90;;;;;;4924096;29;20559;-76
2022/04/17 09:00:13;;;;;;;22.20;18.10;;;18.20;53.00;;;;;;4927577;29;20051;-76
2022/04/17 09:02:39;;;;;;;23.02;18.73;;;18.30;53.00;;;;;;4926076;29;20058;-81
2022/04/17 09:05:06;;;;;;;28.45;19.33;;;18.40;53.10;;;;;;4925407;29;20075;-76
2022/04/17 09:07:45;;;;;;;22.45;18.40;;;18.40;53.00;;;;;;4926795;29;20443;-76
2022/04/17 09:10:24;;;;;;;21.85;18.08;;;18.60;53.30;;;;;;4926923;29;20059;-77
2022/04/17 09:12:59;;;;;;;21.58;16.27;;;18.70;53.30;;;;;;4918279;29;20036;-77
2022/04/17 09:15:35;;;;;;;17.70;15.48;;;18.80;53.40;;;;;;4931683;29;20032;-77
2022/04/17 09:18:06;;;;;;;21.30;15.55;;;18.90;53.50;;;;;;4927762;29;20761;-78
2022/04/17 09:20:35;;;;;;;18.40;16.17;;;18.90;53.40;;;;;;4930634;29;20124;-78
2022/04/17 09:23:01;;;;;;;19.77;15.20;;;19.00;53.40;;;;;;4937801;29;20387;-78
2022/04/17 09:25:28;;;;;;;20.42;15.45;;;19.10;53.50;;;;;;4942564;29;20034;-77
2022/04/17 09:28:03;;;;;;;19.63;14.88;;;19.10;53.40;;;;;;4928604;29;20208;-76
2022/04/17 09:30:29;;;;;;;19.45;14.05;;;19.20;53.40;;;;;;4935145;29;20019;-77
2022/04/17 09:32:56;;;;;;;21.23;14.43;;;19.30;53.40;;;;;;4940144;29;20107;-77
2022/04/17 09:35:26;;;;;;;16.08;13.98;;;19.40;53.40;;;;;;4933582;29;20574;-76
2022/04/17 09:37:59;;;;;;;16.95;13.32;;;19.40;53.20;;;;;;4936774;29;20032;-76
2022/04/17 09:40:29;;;;;;;18.45;14.02;;;19.50;53.20;;;;;;4941887;29;20336;-77
2022/04/17 09:43:07;;;;;;;15.90;13.32;;;19.70;53.40;;;;;;4928312;29;20079;-78
2022/04/17 09:45:54;;;;;;;22.73;14.07;;;19.80;53.30;;;;;;4930967;29;20365;-78
2022/04/17 09:48:20;;;;;;;15.35;11.77;;;19.90;53.30;;;;;;4925471;29;20131;-77
2022/04/17 09:50:46;;;;;;;13.48;11.02;;;20.00;53.20;;;;;;4923681;29;20079;-80
2022/04/17 09:53:37;;;;;;;12.48;9.70;;;20.20;53.60;;;;;;4927184;29;20390;-77
2022/04/17 09:56:08;;;;;;;10.93;9.38;;;20.40;54.20;;;;;;4927379;29;20439;-81
2022/04/17 09:58:36;;;;;;;12.15;8.73;;;20.70;54.50;;;;;;4929078;29;20031;-79
2022/04/17 10:01:03;;;;;;;10.48;8.35;;;20.90;54.70;;;;;;4930352;29;20036;-79
2022/04/17 10:03:30;;;;;;;11.18;8.02;;;21.10;54.90;;;;;;4928187;29;20040;-78
2022/04/17 10:05:56;;;;;;;10.95;7.90;;;21.30;55.00;;;;;;4930331;29;20034;-77
2022/04/17 10:08:26;;;;;;;10.52;8.68;;;21.50;55.10;;;;;;4928906;29;20047;-79
2022/04/17 10:10:52;;;;;;;9.05;7.38;;;21.60;55.00;;;;;;4929589;29;20063;-78
2022/04/17 10:13:20;;;;;;;11.45;8.80;;;21.80;55.10;;;;;;4930889;29;20036;-79
2022/04/17 10:15:49;;;;;;;10.18;7.75;;;22.00;55.20;;;;;;4926601;29;20139;-81
2022/04/17 10:18:17;;;;;;;10.45;7.53;;;22.10;55.10;;;;;;4935397;29;20039;-78
2022/04/17 10:20:45;;;;;;;9.35;7.63;;;22.30;55.30;;;;;;4928644;29;20140;-79
2022/04/17 10:23:13;;;;;;;8.20;6.85;;;22.40;55.10;;;;;;4937151;29;20047;-79
2022/04/17 10:25:42;;;;;;;9.68;7.13;;;22.60;55.20;;;;;;4944307;29;20036;-79
2022/04/17 10:28:09;;;;;;;8.95;7.43;;;22.70;55.10;;;;;;4933644;28;20118;-80
2022/04/17 10:31:02;;;;;;;9.77;7.15;;;22.90;55.10;;;;;;4926939;29;20028;-79
2022/04/17 10:33:49;;;;;;;8.88;6.95;;;23.10;55.00;;;;;;4950907;29;20176;-81
2022/04/17 10:36:32;;;;;;;9.65;6.93;;;23.20;54.90;;;;;;4958607;29;20106;-80
2022/04/17 10:39:42;;;;;;;9.00;6.93;;;23.40;55.00;;;;;;4952392;29;20026;-81
2022/04/17 10:42:09;;;;;;;12.10;7.60;;;23.60;54.90;;;;;;4875469;29;20121;-77
2022/04/17 10:44:41;;;;;;;10.57;7.40;;;23.90;55.00;;;;;;4943295;29;20036;-76
2022/04/17 10:47:20;;;;;;;11.15;8.02;;;24.00;54.70;;;;;;4964257;28;20039;-76
2022/04/17 10:49:56;;;;;;;9.93;8.55;;;24.10;54.40;;;;;;4960352;29;20023;-75
2022/04/17 10:52:33;;;;;;;9.85;7.97;;;24.20;54.20;;;;;;4951832;29;20046;-75
2022/04/17 10:55:14;;;;;;;9.18;8.27;;;24.30;54.00;;;;;;4952839;29;20043;-75
2022/04/17 10:57:46;;;;;;;9.38;8.35;;;24.30;53.60;;;;;;4936527;29;20518;-76
2022/04/17 11:00:38;;;;;;;9.40;7.28;;;24.40;53.80;;;;;;4936499;29;20515;-76
2022/04/17 11:03:10;;;;;;;7.93;7.03;;;24.50;53.70;;;;;;4937442;29;20054;-76
2022/04/17 11:08:27;;;;;;;10.32;6.55;;;24.50;53.40;;;;;;4939701;29;20039;-77
2022/04/17 11:11:02;;;;;;;8.55;7.13;;;24.50;53.40;;;;;;4936738;29;20046;-77
2022/04/17 11:13:28;;;;;;;7.35;6.53;;;24.50;53.20;;;;;;4940418;29;20040;-75
2022/04/17 11:15:59;;;;;;;7.57;6.78;;;24.50;53.10;;;;;;4935620;29;20480;-76
2022/04/17 11:18:29;;;;;;;7.78;6.88;;;24.60;53.00;;;;;;4922348;29;20484;-77
2022/04/17 11:20:55;;;;;;;11.40;8.05;;;24.70;53.50;;;;;;4930529;29;20086;-80
2022/04/17 11:23:49;;;;;;;7.93;6.18;;;24.70;52.80;;;;;;4932412;29;20051;-78
2022/04/17 11:26:15;;;;;;;8.02;6.78;;;24.80;52.60;;;;;;4937170;29;20028;-79
2022/04/17 11:28:41;;;;;;;11.57;6.82;;;24.90;52.90;;;;;;4948645;29;20027;-78
2022/04/17 11:31:07;;;;;;;6.95;6.20;;;24.90;52.70;;;;;;4938856;28;20475;-78
2022/04/17 11:33:34;;;;;;;6.43;5.78;;;25.00;52.60;;;;;;4944960;29;20027;-77
2022/04/17 11:36:00;;;;;;;7.18;6.47;;;25.10;52.50;;;;;;4973296;29;20070;-78
2022/04/17 11:38:26;;;;;;;6.60;6.00;;;25.10;52.40;;;;;;4958869;29;20061;-78
2022/04/17 11:40:52;;;;;;;7.00;5.70;;;25.20;52.40;;;;;;4956079;29;20023;-79
2022/04/17 11:43:19;;;;;;;7.72;5.57;;;25.20;52.20;;;;;;4956230;29;20049;-76
2022/04/17 11:45:47;;;;;;;6.05;4.97;;;25.20;52.00;;;;;;4927593;28;20627;-76
2022/04/17 11:48:16;;;;;;;5.55;5.05;;;25.30;51.90;;;;;;4953928;29;20091;-76
2022/04/17 11:50:42;;;;;;;6.60;5.90;;;25.40;51.80;;;;;;4955850;28;20018;-77
2022/04/17 11:53:16;;;;;;;5.18;4.68;;;25.40;51.60;;;;;;4959667;29;20031;-78
2022/04/17 11:55:46;;;;;;;5.20;4.70;;;25.50;51.40;;;;;;4938981;29;20118;-76
2022/04/17 11:58:21;;;;;;;4.93;4.30;;;25.60;51.30;;;;;;4953083;29;20039;-77
2022/04/17 12:01:05;;;;;;;4.80;4.10;;;25.70;51.20;;;;;;4947915;29;20032;-77
2022/04/17 12:03:38;;;;;;;7.30;4.60;;;25.80;50.90;;;;;;4936564;29;20046;-76
2022/04/17 12:06:06;;;;;;;5.60;4.50;;;25.80;50.80;;;;;;4919142;29;20042;-76
2022/04/17 12:08:37;;;;;;;4.15;3.67;;;25.90;50.70;;;;;;4932936;29;20233;-77
2022/04/17 12:11:09;;;;;;;5.38;3.30;;;26.00;50.40;;;;;;4932260;29;20035;-78
2022/04/17 12:13:36;;;;;;;4.10;3.70;;;26.10;50.30;;;;;;4930409;29;20032;-78
2022/04/17 12:16:08;;;;;;;3.47;3.17;;;26.30;50.20;;;;;;4924831;29;20031;-77
2022/04/17 12:18:34;;;;;;;3.95;3.55;;;26.30;49.80;;;;;;4930540;29;20045;-76
2022/04/17 12:21:06;;;;;;;3.60;3.20;;;26.40;49.90;;;;;;4930770;29;20114;-76
2022/04/17 12:23:35;;;;;;;3.33;2.95;;;26.40;49.80;;;;;;4929921;29;20032;-77
2022/04/17 12:26:06;;;;;;;3.00;2.70;;;26.40;49.70;;;;;;4929536;29;20028;-78
2022/04/17 12:28:32;;;;;;;3.58;3.17;;;26.50;49.50;;;;;;4939434;29;20031;-78
2022/04/17 12:30:58;;;;;;;4.55;3.17;;;26.60;49.50;;;;;;4916386;29;20568;-78
2022/04/17 12:33:28;;;;;;;3.00;2.80;;;26.80;49.30;;;;;;4936759;29;20031;-77
2022/04/17 12:36:09;;;;;;;4.15;3.33;;;26.90;49.10;;;;;;4920126;29;20035;-77
2022/04/17 12:38:40;;;;;;;3.90;2.63;;;27.00;48.70;;;;;;4930563;29;20027;-76
2022/04/17 12:41:28;;;;;;;3.00;2.50;;;27.10;48.70;;;;;;4930894;29;20126;-77
2022/04/17 12:43:55;;;;;;;2.97;2.20;;;27.20;48.30;;;;;;4934854;29;20062;-76
2022/04/17 12:46:26;;;;;;;2.33;2.13;;;27.30;48.40;;;;;;4935560;29;20051;-76
2022/04/17 12:49:06;;;;;;;2.53;2.15;;;27.30;48.10;;;;;;4933281;29;20436;-76
2022/04/17 12:51:32;;;;;;;3.45;2.88;;;27.40;48.00;;;;;;4933578;28;20350;-75
2022/04/17 12:54:00;;;;;;;2.67;2.30;;;27.50;48.10;;;;;;4933573;29;20039;-75
2022/04/17 12:56:26;;;;;;;2.53;2.33;;;27.50;47.80;;;;;;4929117;29;20480;-75